sensor_id;sensor_type;location;lat;lon;timestamp;P1;durP1;ratioP1;P2;durP2;ratioP2
70132;SDS011;57495;49.922;7.966;2023-12-28T00:00:20;7.73;;;3.00;;
70132;SDS011;57495;49.922;7.966;2023-12-28T00:02:22;7.30;;;2.95;;
70132;SDS011;57495;49.922;7.966;2023-12-28T00:04:23;9.70;;;3.78;;
70132;SDS011;57495;49.922;7.966;2023-12-28T00:06:26;6.78;;;2.95;;
70132;SDS011;57495;49.922;7.966;2023-12-28T00:08:27;7.40;;;4.00;;
70132;SDS011;57495;49.922;7.966;2023-12-28T00:10:28;7.83;;;3.43;;
70132;SDS011;57495;49.922;7.966;2023-12-28T00:12:29;7.07;;;3.53;;
70132;SDS011;57495;49.922;7.966;2023-12-28T00:14:30;6.93;;;3.28;;
70132;SDS011;57495;49.922;7.966;2023-12-28T00:16:32;9.32;;;3.35;;
70132;SDS011;57495;49.922;7.966;2023-12-28T00:18:33;6.63;;;3.20;;
70132;SDS011;57495;49.922;7.966;2023-12-28T00:20:34;10.95;;;3.47;;
70132;SDS011;57495;49.922;7.966;2023-12-28T00:22:37;7.68;;;3.30;;
70132;SDS011;57495;49.922;7.966;2023-12-28T00:24:38;7.47;;;3.10;;
70132;SDS011;57495;49.922;7.966;2023-12-28T00:26:40;8.93;;;2.53;;
70132;SDS011;57495;49.922;7.966;2023-12-28T00:28:41;8.07;;;3.45;;
70132;SDS011;57495;49.922;7.966;2023-12-28T00:30:41;8.17;;;3.17;;
70132;SDS011;57495;49.922;7.966;2023-12-28T00:32:43;6.72;;;3.05;;
70132;SDS011;57495;49.922;7.966;2023-12-28T00:34:45;7.65;;;3.20;;
70132;SDS011;57495;49.922;7.966;2023-12-28T00:36:47;8.10;;;3.08;;
70132;SDS011;57495;49.922;7.966;2023-12-28T00:38:50;8.73;;;3.10;;
70132;SDS011;57495;49.922;7.966;2023-12-28T00:40:51;7.07;;;2.85;;
70132;SDS011;57495;49.922;7.966;2023-12-28T00:42:51;9.63;;;3.03;;
70132;SDS011;57495;49.922;7.966;2023-12-28T00:44:53;6.85;;;3.10;;
70132;SDS011;57495;49.922;7.966;2023-12-28T00:46:54;7.80;;;3.00;;
70132;SDS011;57495;49.922;7.966;2023-12-28T00:48:56;6.45;;;3.05;;
70132;SDS011;57495;49.922;7.966;2023-12-28T00:50:58;7.45;;;3.13;;
70132;SDS011;57495;49.922;7.966;2023-12-28T00:52:59;7.30;;;3.20;;
70132;SDS011;57495;49.922;7.966;2023-12-28T00:55:02;7.38;;;3.10;;
70132;SDS011;57495;49.922;7.966;2023-12-28T00:57:04;7.55;;;2.80;;
70132;SDS011;57495;49.922;7.966;2023-12-28T00:59:06;9.07;;;3.42;;
70132;SDS011;57495;49.922;7.966;2023-12-28T01:01:07;8.45;;;3.83;;
70132;SDS011;57495;49.922;7.966;2023-12-28T01:03:09;6.97;;;3.33;;
70132;SDS011;57495;49.922;7.966;2023-12-28T01:05:11;8.73;;;3.22;;
70132;SDS011;57495;49.922;7.966;2023-12-28T01:07:12;5.80;;;2.17;;
70132;SDS011;57495;49.922;7.966;2023-12-28T01:09:13;6.47;;;3.33;;
70132;SDS011;57495;49.922;7.966;2023-12-28T01:11:16;7.35;;;3.20;;
70132;SDS011;57495;49.922;7.966;2023-12-28T01:13:17;7.00;;;2.97;;
70132;SDS011;57495;49.922;7.966;2023-12-28T01:15:19;7.45;;;3.38;;
70132;SDS011;57495;49.922;7.966;2023-12-28T01:17:20;8.15;;;3.85;;
70132;SDS011;57495;49.922;7.966;2023-12-28T01:19:21;8.88;;;3.47;;
70132;SDS011;57495;49.922;7.966;2023-12-28T01:21:23;9.90;;;3.83;;
70132;SDS011;57495;49.922;7.966;2023-12-28T01:23:25;8.50;;;3.60;;
70132;SDS011;57495;49.922;7.966;2023-12-28T01:25:26;6.60;;;3.00;;
70132;SDS011;57495;49.922;7.966;2023-12-28T01:27:28;8.30;;;3.40;;
70132;SDS011;57495;49.922;7.966;2023-12-28T01:29:30;6.88;;;3.10;;
70132;SDS011;57495;49.922;7.966;2023-12-28T01:31:32;8.60;;;3.22;;
70132;SDS011;57495;49.922;7.966;2023-12-28T01:33:34;8.60;;;3.05;;
70132;SDS011;57495;49.922;7.966;2023-12-28T01:35:35;7.05;;;3.08;;
70132;SDS011;57495;49.922;7.966;2023-12-28T01:37:37;7.80;;;2.83;;
70132;SDS011;57495;49.922;7.966;2023-12-28T01:39:37;7.80;;;3.22;;
70132;SDS011;57495;49.922;7.966;2023-12-28T01:41:39;6.72;;;3.33;;
70132;SDS011;57495;49.922;7.966;2023-12-28T01:43:42;8.00;;;3.42;;
70132;SDS011;57495;49.922;7.966;2023-12-28T01:45:44;8.60;;;3.22;;
70132;SDS011;57495;49.922;7.966;2023-12-28T01:47:45;7.40;;;3.10;;
70132;SDS011;57495;49.922;7.966;2023-12-28T01:49:48;6.93;;;3.10;;
70132;SDS011;57495;49.922;7.966;2023-12-28T01:51:49;7.43;;;3.17;;
70132;SDS011;57495;49.922;7.966;2023-12-28T01:53:51;7.10;;;3.05;;
70132;SDS011;57495;49.922;7.966;2023-12-28T01:55:53;9.60;;;2.88;;
70132;SDS011;57495;49.922;7.966;2023-12-28T01:57:54;7.33;;;3.23;;
70132;SDS011;57495;49.922;7.966;2023-12-28T01:59:57;7.45;;;2.47;;
70132;SDS011;57495;49.922;7.966;2023-12-28T02:02:01;8.07;;;3.30;;
70132;SDS011;57495;49.922;7.966;2023-12-28T02:04:02;6.63;;;2.92;;
70132;SDS011;57495;49.922;7.966;2023-12-28T02:06:04;7.93;;;3.10;;
70132;SDS011;57495;49.922;7.966;2023-12-28T02:08:07;7.93;;;2.78;;
70132;SDS011;57495;49.922;7.966;2023-12-28T02:10:08;6.20;;;3.22;;
70132;SDS011;57495;49.922;7.966;2023-12-28T02:12:10;7.68;;;2.88;;
70132;SDS011;57495;49.922;7.966;2023-12-28T02:14:12;7.15;;;3.30;;
70132;SDS011;57495;49.922;7.966;2023-12-28T02:16:15;7.35;;;3.10;;
70132;SDS011;57495;49.922;7.966;2023-12-28T02:18:23;7.13;;;3.22;;
70132;SDS011;57495;49.922;7.966;2023-12-28T02:20:29;6.40;;;2.95;;
70132;SDS011;57495;49.922;7.966;2023-12-28T02:22:31;8.07;;;3.35;;
70132;SDS011;57495;49.922;7.966;2023-12-28T02:24:47;7.35;;;2.78;;
70132;SDS011;57495;49.922;7.966;2023-12-28T02:26:57;7.63;;;2.90;;
70132;SDS011;57495;49.922;7.966;2023-12-28T02:28:58;6.90;;;2.55;;
70132;SDS011;57495;49.922;7.966;2023-12-28T02:30:59;7.90;;;2.63;;
70132;SDS011;57495;49.922;7.966;2023-12-28T02:33:04;7.50;;;2.65;;
70132;SDS011;57495;49.922;7.966;2023-12-28T02:35:14;7.18;;;3.00;;
70132;SDS011;57495;49.922;7.966;2023-12-28T02:37:18;7.45;;;3.15;;
70132;SDS011;57495;49.922;7.966;2023-12-28T02:39:19;7.35;;;3.05;;
70132;SDS011;57495;49.922;7.966;2023-12-28T02:41:24;7.90;;;2.88;;
70132;SDS011;57495;49.922;7.966;2023-12-28T02:43:26;7.65;;;2.70;;
70132;SDS011;57495;49.922;7.966;2023-12-28T02:45:28;7.82;;;3.13;;
70132;SDS011;57495;49.922;7.966;2023-12-28T02:47:29;7.78;;;3.00;;
70132;SDS011;57495;49.922;7.966;2023-12-28T02:49:30;6.28;;;2.47;;
70132;SDS011;57495;49.922;7.966;2023-12-28T02:51:31;6.93;;;2.88;;
70132;SDS011;57495;49.922;7.966;2023-12-28T02:53:33;7.97;;;2.80;;
70132;SDS011;57495;49.922;7.966;2023-12-28T02:55:34;7.68;;;3.10;;
70132;SDS011;57495;49.922;7.966;2023-12-28T02:57:37;6.70;;;2.45;;
70132;SDS011;57495;49.922;7.966;2023-12-28T02:59:39;6.43;;;2.38;;
70132;SDS011;57495;49.922;7.966;2023-12-28T03:01:40;7.25;;;2.85;;
70132;SDS011;57495;49.922;7.966;2023-12-28T03:03:41;6.03;;;2.40;;
70132;SDS011;57495;49.922;7.966;2023-12-28T03:05:43;6.78;;;2.97;;
70132;SDS011;57495;49.922;7.966;2023-12-28T03:07:43;6.43;;;2.80;;
70132;SDS011;57495;49.922;7.966;2023-12-28T03:09:45;6.97;;;2.60;;
70132;SDS011;57495;49.922;7.966;2023-12-28T03:11:46;5.80;;;2.50;;
70132;SDS011;57495;49.922;7.966;2023-12-28T03:13:48;5.88;;;2.65;;
70132;SDS011;57495;49.922;7.966;2023-12-28T03:15:50;5.63;;;2.67;;
70132;SDS011;57495;49.922;7.966;2023-12-28T03:17:51;7.50;;;2.30;;
70132;SDS011;57495;49.922;7.966;2023-12-28T03:19:52;6.67;;;2.43;;
70132;SDS011;57495;49.922;7.966;2023-12-28T03:21:53;7.18;;;2.72;;
70132;SDS011;57495;49.922;7.966;2023-12-28T03:23:53;7.67;;;2.77;;
70132;SDS011;57495;49.922;7.966;2023-12-28T03:25:55;6.57;;;2.55;;
70132;SDS011;57495;49.922;7.966;2023-12-28T03:27:56;7.83;;;2.33;;
70132;SDS011;57495;49.922;7.966;2023-12-28T03:29:59;7.32;;;2.90;;
70132;SDS011;57495;49.922;7.966;2023-12-28T03:32:01;6.28;;;2.55;;
70132;SDS011;57495;49.922;7.966;2023-12-28T03:34:02;6.60;;;2.80;;
70132;SDS011;57495;49.922;7.966;2023-12-28T03:36:04;7.97;;;2.90;;
70132;SDS011;57495;49.922;7.966;2023-12-28T03:38:05;7.13;;;2.60;;
70132;SDS011;57495;49.922;7.966;2023-12-28T03:40:07;7.72;;;3.30;;
70132;SDS011;57495;49.922;7.966;2023-12-28T03:42:09;7.15;;;2.90;;
70132;SDS011;57495;49.922;7.966;2023-12-28T03:44:10;5.97;;;2.95;;
70132;SDS011;57495;49.922;7.966;2023-12-28T03:46:14;7.53;;;3.08;;
70132;SDS011;57495;49.922;7.966;2023-12-28T03:48:15;7.33;;;2.80;;
70132;SDS011;57495;49.922;7.966;2023-12-28T03:50:17;8.13;;;3.17;;
70132;SDS011;57495;49.922;7.966;2023-12-28T03:52:18;7.50;;;2.90;;
70132;SDS011;57495;49.922;7.966;2023-12-28T03:54:19;7.63;;;3.30;;
70132;SDS011;57495;49.922;7.966;2023-12-28T03:56:21;7.70;;;3.42;;
70132;SDS011;57495;49.922;7.966;2023-12-28T03:58:22;6.73;;;3.07;;
70132;SDS011;57495;49.922;7.966;2023-12-28T04:00:24;7.80;;;3.20;;
70132;SDS011;57495;49.922;7.966;2023-12-28T04:02:27;7.25;;;3.08;;
70132;SDS011;57495;49.922;7.966;2023-12-28T04:04:31;6.78;;;3.08;;
70132;SDS011;57495;49.922;7.966;2023-12-28T04:06:32;7.25;;;3.20;;
70132;SDS011;57495;49.922;7.966;2023-12-28T04:08:33;6.17;;;2.90;;
70132;SDS011;57495;49.922;7.966;2023-12-28T04:10:34;6.88;;;2.80;;
70132;SDS011;57495;49.922;7.966;2023-12-28T04:12:37;6.53;;;3.03;;
70132;SDS011;57495;49.922;7.966;2023-12-28T04:14:38;7.57;;;3.00;;
70132;SDS011;57495;49.922;7.966;2023-12-28T04:16:39;7.93;;;3.47;;
70132;SDS011;57495;49.922;7.966;2023-12-28T04:18:42;7.47;;;3.40;;
70132;SDS011;57495;49.922;7.966;2023-12-28T04:20:43;7.80;;;3.20;;
70132;SDS011;57495;49.922;7.966;2023-12-28T04:22:45;7.22;;;3.13;;
70132;SDS011;57495;49.922;7.966;2023-12-28T04:24:47;9.98;;;3.55;;
70132;SDS011;57495;49.922;7.966;2023-12-28T04:26:48;7.87;;;3.17;;
70132;SDS011;57495;49.922;7.966;2023-12-28T04:28:50;7.18;;;3.00;;
70132;SDS011;57495;49.922;7.966;2023-12-28T04:30:50;6.40;;;2.97;;
70132;SDS011;57495;49.922;7.966;2023-12-28T04:32:52;7.10;;;2.80;;
70132;SDS011;57495;49.922;7.966;2023-12-28T04:34:54;6.63;;;3.08;;
70132;SDS011;57495;49.922;7.966;2023-12-28T04:36:57;5.90;;;2.83;;
70132;SDS011;57495;49.922;7.966;2023-12-28T04:38:58;7.40;;;3.38;;
70132;SDS011;57495;49.922;7.966;2023-12-28T04:41:00;7.73;;;3.40;;
70132;SDS011;57495;49.922;7.966;2023-12-28T04:43:02;8.55;;;3.15;;
70132;SDS011;57495;49.922;7.966;2023-12-28T04:45:03;7.03;;;3.63;;
70132;SDS011;57495;49.922;7.966;2023-12-28T04:47:05;6.95;;;3.20;;
70132;SDS011;57495;49.922;7.966;2023-12-28T04:49:06;9.80;;;3.30;;
70132;SDS011;57495;49.922;7.966;2023-12-28T04:51:08;6.85;;;2.90;;
70132;SDS011;57495;49.922;7.966;2023-12-28T04:53:10;6.20;;;2.67;;
70132;SDS011;57495;49.922;7.966;2023-12-28T04:55:11;7.10;;;3.20;;
70132;SDS011;57495;49.922;7.966;2023-12-28T04:57:13;7.32;;;2.80;;
70132;SDS011;57495;49.922;7.966;2023-12-28T04:59:13;6.55;;;2.55;;
70132;SDS011;57495;49.922;7.966;2023-12-28T05:01:15;6.60;;;3.07;;
70132;SDS011;57495;49.922;7.966;2023-12-28T05:03:16;8.43;;;3.60;;
70132;SDS011;57495;49.922;7.966;2023-12-28T05:05:17;7.38;;;3.50;;
70132;SDS011;57495;49.922;7.966;2023-12-28T05:07:20;8.18;;;3.30;;
70132;SDS011;57495;49.922;7.966;2023-12-28T05:09:21;6.75;;;3.45;;
70132;SDS011;57495;49.922;7.966;2023-12-28T05:11:22;5.80;;;2.70;;
70132;SDS011;57495;49.922;7.966;2023-12-28T05:13:23;6.38;;;3.28;;
70132;SDS011;57495;49.922;7.966;2023-12-28T05:15:25;6.95;;;3.25;;
70132;SDS011;57495;49.922;7.966;2023-12-28T05:17:26;6.47;;;2.50;;
70132;SDS011;57495;49.922;7.966;2023-12-28T05:19:28;7.75;;;2.97;;
70132;SDS011;57495;49.922;7.966;2023-12-28T05:21:29;7.27;;;3.03;;
70132;SDS011;57495;49.922;7.966;2023-12-28T05:23:31;10.35;;;3.20;;
70132;SDS011;57495;49.922;7.966;2023-12-28T05:25:32;5.47;;;2.33;;
70132;SDS011;57495;49.922;7.966;2023-12-28T05:27:34;8.25;;;2.55;;
70132;SDS011;57495;49.922;7.966;2023-12-28T05:29:35;7.60;;;3.20;;
70132;SDS011;57495;49.922;7.966;2023-12-28T05:31:35;6.97;;;2.93;;
70132;SDS011;57495;49.922;7.966;2023-12-28T05:33:37;6.80;;;3.45;;
70132;SDS011;57495;49.922;7.966;2023-12-28T05:35:37;6.47;;;3.10;;
70132;SDS011;57495;49.922;7.966;2023-12-28T05:37:39;8.68;;;3.38;;
70132;SDS011;57495;49.922;7.966;2023-12-28T05:39:41;7.35;;;3.22;;
70132;SDS011;57495;49.922;7.966;2023-12-28T05:41:42;7.40;;;3.35;;
70132;SDS011;57495;49.922;7.966;2023-12-28T05:43:45;7.00;;;2.73;;
70132;SDS011;57495;49.922;7.966;2023-12-28T05:45:46;6.18;;;2.78;;
70132;SDS011;57495;49.922;7.966;2023-12-28T05:47:47;9.05;;;3.33;;
70132;SDS011;57495;49.922;7.966;2023-12-28T05:49:48;5.27;;;2.23;;
70132;SDS011;57495;49.922;7.966;2023-12-28T05:51:49;8.13;;;3.15;;
70132;SDS011;57495;49.922;7.966;2023-12-28T05:53:50;7.63;;;2.93;;
70132;SDS011;57495;49.922;7.966;2023-12-28T05:55:52;7.85;;;3.17;;
70132;SDS011;57495;49.922;7.966;2023-12-28T05:57:54;7.00;;;2.40;;
70132;SDS011;57495;49.922;7.966;2023-12-28T05:59:55;6.13;;;2.25;;
70132;SDS011;57495;49.922;7.966;2023-12-28T06:01:57;5.43;;;2.30;;
70132;SDS011;57495;49.922;7.966;2023-12-28T06:03:58;7.07;;;2.72;;
70132;SDS011;57495;49.922;7.966;2023-12-28T06:05:59;5.03;;;2.17;;
70132;SDS011;57495;49.922;7.966;2023-12-28T06:08:01;5.10;;;2.10;;
70132;SDS011;57495;49.922;7.966;2023-12-28T06:10:01;8.47;;;1.57;;
70132;SDS011;57495;49.922;7.966;2023-12-28T06:12:04;6.22;;;2.47;;
70132;SDS011;57495;49.922;7.966;2023-12-28T06:14:05;5.45;;;2.10;;
70132;SDS011;57495;49.922;7.966;2023-12-28T06:16:07;5.97;;;2.17;;
70132;SDS011;57495;49.922;7.966;2023-12-28T06:18:08;6.90;;;2.10;;
70132;SDS011;57495;49.922;7.966;2023-12-28T06:20:10;5.70;;;1.30;;
70132;SDS011;57495;49.922;7.966;2023-12-28T06:22:12;4.63;;;1.65;;
70132;SDS011;57495;49.922;7.966;2023-12-28T06:24:13;4.95;;;1.90;;
70132;SDS011;57495;49.922;7.966;2023-12-28T06:26:15;4.47;;;1.83;;
70132;SDS011;57495;49.922;7.966;2023-12-28T06:28:17;4.72;;;1.88;;
70132;SDS011;57495;49.922;7.966;2023-12-28T06:30:18;3.65;;;1.15;;
70132;SDS011;57495;49.922;7.966;2023-12-28T06:32:19;3.65;;;1.35;;
70132;SDS011;57495;49.922;7.966;2023-12-28T06:34:21;5.55;;;1.50;;
70132;SDS011;57495;49.922;7.966;2023-12-28T06:36:22;4.82;;;1.27;;
70132;SDS011;57495;49.922;7.966;2023-12-28T06:38:23;5.03;;;1.57;;
70132;SDS011;57495;49.922;7.966;2023-12-28T06:40:24;5.78;;;1.83;;
70132;SDS011;57495;49.922;7.966;2023-12-28T06:42:26;4.25;;;1.48;;
70132;SDS011;57495;49.922;7.966;2023-12-28T06:44:28;4.40;;;2.03;;
70132;SDS011;57495;49.922;7.966;2023-12-28T06:46:30;5.05;;;2.10;;
70132;SDS011;57495;49.922;7.966;2023-12-28T06:48:31;5.57;;;1.90;;
70132;SDS011;57495;49.922;7.966;2023-12-28T06:50:33;5.10;;;1.75;;
70132;SDS011;57495;49.922;7.966;2023-12-28T06:52:34;4.75;;;1.90;;
70132;SDS011;57495;49.922;7.966;2023-12-28T06:54:35;4.95;;;2.10;;
70132;SDS011;57495;49.922;7.966;2023-12-28T06:56:37;4.80;;;2.22;;
70132;SDS011;57495;49.922;7.966;2023-12-28T06:58:38;6.38;;;2.17;;
70132;SDS011;57495;49.922;7.966;2023-12-28T07:00:41;5.50;;;1.80;;
70132;SDS011;57495;49.922;7.966;2023-12-28T07:02:44;4.80;;;1.98;;
70132;SDS011;57495;49.922;7.966;2023-12-28T07:04:45;5.30;;;2.20;;
70132;SDS011;57495;49.922;7.966;2023-12-28T07:06:46;5.85;;;2.30;;
70132;SDS011;57495;49.922;7.966;2023-12-28T07:08:48;5.75;;;2.15;;
70132;SDS011;57495;49.922;7.966;2023-12-28T07:10:49;4.93;;;2.40;;
70132;SDS011;57495;49.922;7.966;2023-12-28T07:12:51;5.47;;;2.15;;
70132;SDS011;57495;49.922;7.966;2023-12-28T07:14:52;5.47;;;2.60;;
70132;SDS011;57495;49.922;7.966;2023-12-28T07:16:55;7.93;;;2.78;;
70132;SDS011;57495;49.922;7.966;2023-12-28T07:18:57;5.63;;;2.30;;
70132;SDS011;57495;49.922;7.966;2023-12-28T07:20:58;5.78;;;2.30;;
70132;SDS011;57495;49.922;7.966;2023-12-28T07:23:00;5.47;;;2.10;;
70132;SDS011;57495;49.922;7.966;2023-12-28T07:25:01;4.38;;;1.85;;
70132;SDS011;57495;49.922;7.966;2023-12-28T07:27:02;6.97;;;2.53;;
70132;SDS011;57495;49.922;7.966;2023-12-28T07:29:04;6.28;;;2.42;;
70132;SDS011;57495;49.922;7.966;2023-12-28T07:31:05;5.70;;;2.15;;
70132;SDS011;57495;49.922;7.966;2023-12-28T07:33:08;5.40;;;2.03;;
70132;SDS011;57495;49.922;7.966;2023-12-28T07:35:10;6.63;;;2.28;;
70132;SDS011;57495;49.922;7.966;2023-12-28T07:37:11;5.80;;;2.05;;
70132;SDS011;57495;49.922;7.966;2023-12-28T07:39:13;7.10;;;2.33;;
70132;SDS011;57495;49.922;7.966;2023-12-28T07:41:15;5.93;;;2.72;;
70132;SDS011;57495;49.922;7.966;2023-12-28T07:43:16;6.65;;;2.30;;
70132;SDS011;57495;49.922;7.966;2023-12-28T07:45:18;5.15;;;1.80;;
70132;SDS011;57495;49.922;7.966;2023-12-28T07:47:23;6.03;;;2.30;;
70132;SDS011;57495;49.922;7.966;2023-12-28T07:49:25;7.20;;;2.60;;
70132;SDS011;57495;49.922;7.966;2023-12-28T07:51:26;5.78;;;2.30;;
70132;SDS011;57495;49.922;7.966;2023-12-28T07:53:27;7.57;;;2.70;;
70132;SDS011;57495;49.922;7.966;2023-12-28T07:55:29;5.40;;;2.50;;
70132;SDS011;57495;49.922;7.966;2023-12-28T07:57:30;5.85;;;2.50;;
70132;SDS011;57495;49.922;7.966;2023-12-28T07:59:32;5.68;;;2.30;;
70132;SDS011;57495;49.922;7.966;2023-12-28T08:01:33;6.28;;;2.10;;
70132;SDS011;57495;49.922;7.966;2023-12-28T08:03:34;6.07;;;2.25;;
70132;SDS011;57495;49.922;7.966;2023-12-28T08:05:36;5.28;;;2.40;;
70132;SDS011;57495;49.922;7.966;2023-12-28T08:07:38;8.18;;;2.90;;
70132;SDS011;57495;49.922;7.966;2023-12-28T08:09:39;6.53;;;2.22;;
70132;SDS011;57495;49.922;7.966;2023-12-28T08:11:39;5.53;;;2.30;;
70132;SDS011;57495;49.922;7.966;2023-12-28T08:13:42;5.18;;;2.17;;
70132;SDS011;57495;49.922;7.966;2023-12-28T08:15:43;5.80;;;2.30;;
70132;SDS011;57495;49.922;7.966;2023-12-28T08:17:46;6.10;;;2.58;;
70132;SDS011;57495;49.922;7.966;2023-12-28T08:19:48;6.53;;;2.70;;
70132;SDS011;57495;49.922;7.966;2023-12-28T08:21:50;6.13;;;2.53;;
70132;SDS011;57495;49.922;7.966;2023-12-28T08:23:52;7.40;;;2.05;;
70132;SDS011;57495;49.922;7.966;2023-12-28T08:25:53;6.53;;;1.83;;
70132;SDS011;57495;49.922;7.966;2023-12-28T08:27:54;5.70;;;2.30;;
70132;SDS011;57495;49.922;7.966;2023-12-28T08:29:56;5.90;;;2.40;;
70132;SDS011;57495;49.922;7.966;2023-12-28T08:31:58;5.03;;;2.03;;
70132;SDS011;57495;49.922;7.966;2023-12-28T08:33:59;4.55;;;2.13;;
70132;SDS011;57495;49.922;7.966;2023-12-28T08:36:02;5.53;;;2.35;;
70132;SDS011;57495;49.922;7.966;2023-12-28T08:38:04;7.28;;;2.50;;
70132;SDS011;57495;49.922;7.966;2023-12-28T08:40:06;4.85;;;1.77;;
70132;SDS011;57495;49.922;7.966;2023-12-28T08:42:08;7.65;;;3.13;;
70132;SDS011;57495;49.922;7.966;2023-12-28T08:44:10;6.55;;;2.20;;
70132;SDS011;57495;49.922;7.966;2023-12-28T08:46:10;5.50;;;2.20;;
70132;SDS011;57495;49.922;7.966;2023-12-28T08:48:12;8.47;;;2.40;;
70132;SDS011;57495;49.922;7.966;2023-12-28T08:50:13;5.80;;;2.13;;
70132;SDS011;57495;49.922;7.966;2023-12-28T08:52:14;6.72;;;2.20;;
70132;SDS011;57495;49.922;7.966;2023-12-28T08:54:17;7.13;;;2.35;;
70132;SDS011;57495;49.922;7.966;2023-12-28T08:56:19;7.05;;;2.38;;
70132;SDS011;57495;49.922;7.966;2023-12-28T08:58:21;6.38;;;1.95;;
70132;SDS011;57495;49.922;7.966;2023-12-28T09:00:22;4.97;;;2.13;;
70132;SDS011;57495;49.922;7.966;2023-12-28T09:02:24;5.70;;;2.20;;
70132;SDS011;57495;49.922;7.966;2023-12-28T09:04:27;8.63;;;2.47;;
70132;SDS011;57495;49.922;7.966;2023-12-28T09:06:28;6.38;;;2.20;;
70132;SDS011;57495;49.922;7.966;2023-12-28T09:08:30;5.68;;;1.95;;
70132;SDS011;57495;49.922;7.966;2023-12-28T09:10:33;7.35;;;1.98;;
70132;SDS011;57495;49.922;7.966;2023-12-28T09:12:34;8.15;;;2.15;;
70132;SDS011;57495;49.922;7.966;2023-12-28T09:14:36;5.35;;;1.98;;
70132;SDS011;57495;49.922;7.966;2023-12-28T09:16:37;5.97;;;2.15;;
70132;SDS011;57495;49.922;7.966;2023-12-28T09:18:39;5.55;;;2.13;;
70132;SDS011;57495;49.922;7.966;2023-12-28T09:20:41;6.10;;;1.90;;
70132;SDS011;57495;49.922;7.966;2023-12-28T09:22:43;6.15;;;1.77;;
70132;SDS011;57495;49.922;7.966;2023-12-28T09:24:46;4.72;;;1.85;;
70132;SDS011;57495;49.922;7.966;2023-12-28T09:26:48;7.65;;;2.03;;
70132;SDS011;57495;49.922;7.966;2023-12-28T09:28:50;4.13;;;1.85;;
70132;SDS011;57495;49.922;7.966;2023-12-28T09:30:51;8.32;;;1.90;;
70132;SDS011;57495;49.922;7.966;2023-12-28T09:32:52;4.27;;;1.80;;
70132;SDS011;57495;49.922;7.966;2023-12-28T09:34:54;4.97;;;2.20;;
70132;SDS011;57495;49.922;7.966;2023-12-28T09:36:55;4.53;;;1.73;;
70132;SDS011;57495;49.922;7.966;2023-12-28T09:38:57;5.32;;;1.63;;
70132;SDS011;57495;49.922;7.966;2023-12-28T09:40:58;7.63;;;1.92;;
70132;SDS011;57495;49.922;7.966;2023-12-28T09:43:15;5.82;;;2.08;;
70132;SDS011;57495;49.922;7.966;2023-12-28T09:45:22;4.90;;;1.90;;
70132;SDS011;57495;49.922;7.966;2023-12-28T09:47:26;5.97;;;1.70;;
70132;SDS011;57495;49.922;7.966;2023-12-28T09:49:28;5.45;;;2.33;;
70132;SDS011;57495;49.922;7.966;2023-12-28T09:51:33;5.75;;;1.70;;
70132;SDS011;57495;49.922;7.966;2023-12-28T09:53:34;4.78;;;1.80;;
70132;SDS011;57495;49.922;7.966;2023-12-28T09:55:36;5.63;;;1.90;;
70132;SDS011;57495;49.922;7.966;2023-12-28T09:57:37;3.88;;;1.40;;
70132;SDS011;57495;49.922;7.966;2023-12-28T09:59:40;5.15;;;1.65;;
70132;SDS011;57495;49.922;7.966;2023-12-28T10:01:41;5.28;;;1.40;;
70132;SDS011;57495;49.922;7.966;2023-12-28T10:03:44;6.43;;;2.40;;
70132;SDS011;57495;49.922;7.966;2023-12-28T10:05:46;7.38;;;1.42;;
70132;SDS011;57495;49.922;7.966;2023-12-28T10:07:47;5.55;;;2.00;;
70132;SDS011;57495;49.922;7.966;2023-12-28T10:09:48;5.53;;;1.77;;
70132;SDS011;57495;49.922;7.966;2023-12-28T10:11:49;5.07;;;1.58;;
70132;SDS011;57495;49.922;7.966;2023-12-28T10:13:52;3.83;;;1.52;;
70132;SDS011;57495;49.922;7.966;2023-12-28T10:15:57;5.18;;;1.63;;
70132;SDS011;57495;49.922;7.966;2023-12-28T10:17:58;7.07;;;1.95;;
70132;SDS011;57495;49.922;7.966;2023-12-28T10:20:00;5.07;;;1.73;;
70132;SDS011;57495;49.922;7.966;2023-12-28T10:22:04;5.95;;;1.90;;
70132;SDS011;57495;49.922;7.966;2023-12-28T10:24:06;4.53;;;1.90;;
70132;SDS011;57495;49.922;7.966;2023-12-28T10:26:06;4.63;;;1.88;;
70132;SDS011;57495;49.922;7.966;2023-12-28T10:28:09;7.22;;;2.08;;
70132;SDS011;57495;49.922;7.966;2023-12-28T10:30:12;6.03;;;1.60;;
70132;SDS011;57495;49.922;7.966;2023-12-28T10:32:15;5.07;;;1.70;;
70132;SDS011;57495;49.922;7.966;2023-12-28T10:34:15;4.75;;;1.67;;
70132;SDS011;57495;49.922;7.966;2023-12-28T10:36:17;4.53;;;1.67;;
70132;SDS011;57495;49.922;7.966;2023-12-28T10:38:19;5.57;;;1.50;;
70132;SDS011;57495;49.922;7.966;2023-12-28T10:40:21;4.53;;;1.20;;
70132;SDS011;57495;49.922;7.966;2023-12-28T10:42:25;5.68;;;1.27;;
70132;SDS011;57495;49.922;7.966;2023-12-28T10:44:31;5.43;;;1.40;;
70132;SDS011;57495;49.922;7.966;2023-12-28T10:46:37;5.30;;;1.45;;
70132;SDS011;57495;49.922;7.966;2023-12-28T10:48:42;4.57;;;1.42;;
70132;SDS011;57495;49.922;7.966;2023-12-28T10:50:46;4.50;;;1.40;;
70132;SDS011;57495;49.922;7.966;2023-12-28T10:52:50;6.35;;;1.52;;
70132;SDS011;57495;49.922;7.966;2023-12-28T10:55:00;5.03;;;1.42;;
70132;SDS011;57495;49.922;7.966;2023-12-28T10:57:16;5.20;;;1.35;;
70132;SDS011;57495;49.922;7.966;2023-12-28T10:59:29;5.63;;;1.30;;
70132;SDS011;57495;49.922;7.966;2023-12-28T11:01:37;5.60;;;1.33;;
70132;SDS011;57495;49.922;7.966;2023-12-28T11:03:40;4.97;;;1.08;;
70132;SDS011;57495;49.922;7.966;2023-12-28T11:05:48;4.40;;;1.17;;
70132;SDS011;57495;49.922;7.966;2023-12-28T11:07:50;4.75;;;1.30;;
70132;SDS011;57495;49.922;7.966;2023-12-28T11:09:53;3.45;;;1.15;;
70132;SDS011;57495;49.922;7.966;2023-12-28T11:11:56;6.83;;;1.80;;
70132;SDS011;57495;49.922;7.966;2023-12-28T11:14:00;5.40;;;1.60;;
70132;SDS011;57495;49.922;7.966;2023-12-28T11:16:02;4.88;;;1.20;;
70132;SDS011;57495;49.922;7.966;2023-12-28T11:18:04;6.50;;;1.88;;
70132;SDS011;57495;49.922;7.966;2023-12-28T11:20:06;4.30;;;1.30;;
70132;SDS011;57495;49.922;7.966;2023-12-28T11:22:09;4.35;;;1.02;;
70132;SDS011;57495;49.922;7.966;2023-12-28T11:24:11;6.13;;;1.27;;
70132;SDS011;57495;49.922;7.966;2023-12-28T11:26:16;3.70;;;1.17;;
70132;SDS011;57495;49.922;7.966;2023-12-28T11:28:18;4.85;;;1.40;;
70132;SDS011;57495;49.922;7.966;2023-12-28T11:30:20;5.97;;;1.10;;
70132;SDS011;57495;49.922;7.966;2023-12-28T11:32:21;6.38;;;1.52;;
70132;SDS011;57495;49.922;7.966;2023-12-28T11:34:24;6.20;;;1.10;;
70132;SDS011;57495;49.922;7.966;2023-12-28T11:36:31;5.15;;;1.30;;
70132;SDS011;57495;49.922;7.966;2023-12-28T11:38:35;6.38;;;1.60;;
70132;SDS011;57495;49.922;7.966;2023-12-28T11:40:40;6.40;;;1.13;;
70132;SDS011;57495;49.922;7.966;2023-12-28T11:42:49;6.13;;;1.00;;
70132;SDS011;57495;49.922;7.966;2023-12-28T11:44:53;5.35;;;1.23;;
70132;SDS011;57495;49.922;7.966;2023-12-28T11:46:56;5.75;;;1.17;;
70132;SDS011;57495;49.922;7.966;2023-12-28T11:49:02;4.47;;;1.38;;
70132;SDS011;57495;49.922;7.966;2023-12-28T11:51:05;8.60;;;2.05;;
70132;SDS011;57495;49.922;7.966;2023-12-28T11:53:08;4.40;;;1.03;;
70132;SDS011;57495;49.922;7.966;2023-12-28T11:55:20;5.20;;;1.30;;
70132;SDS011;57495;49.922;7.966;2023-12-28T11:57:22;6.40;;;1.10;;
70132;SDS011;57495;49.922;7.966;2023-12-28T11:59:23;4.35;;;1.52;;
70132;SDS011;57495;49.922;7.966;2023-12-28T12:01:25;4.38;;;1.27;;
70132;SDS011;57495;49.922;7.966;2023-12-28T12:03:25;4.50;;;0.90;;
70132;SDS011;57495;49.922;7.966;2023-12-28T12:05:27;4.32;;;1.08;;
70132;SDS011;57495;49.922;7.966;2023-12-28T12:07:29;5.38;;;1.40;;
70132;SDS011;57495;49.922;7.966;2023-12-28T12:09:32;5.43;;;1.63;;
70132;SDS011;57495;49.922;7.966;2023-12-28T12:11:34;6.72;;;1.30;;
70132;SDS011;57495;49.922;7.966;2023-12-28T12:13:37;4.57;;;1.20;;
70132;SDS011;57495;49.922;7.966;2023-12-28T12:15:39;6.78;;;0.95;;